Time;durP1;ratioP1;P1;durP2;ratioP2;P2;SDS_P1;SDS_P2;PMS_P1;PMS_P2;Temp;Humidity;BMP_temperature;BMP_pressure;BME280_temperature;BME280_humidity;BME280_pressure;Samples;Min_cycle;Max_cycle;Signal;HPM_P1;HPM_P2
2022/03/26 00:00:25;;;;;;;28.37;18.47;;;;;;;8.39;49.10;100373.41;5000139;28;20202;-75
2022/03/26 00:02:51;;;;;;;27.35;18.65;;;;;;;8.36;49.21;100374.34;4998947;28;20660;-75
2022/03/26 00:05:17;;;;;;;30.50;18.87;;;;;;;8.34;49.34;100377.94;4997665;28;20419;-75
2022/03/26 00:07:43;;;;;;;25.58;18.98;;;;;;;8.35;49.18;100375.28;4998150;28;20214;-74
2022/03/26 00:10:10;;;;;;;31.23;20.25;;;;;;;8.37;49.01;100381.31;4996997;28;20699;-74
2022/03/26 00:12:36;;;;;;;31.73;21.25;;;;;;;8.44;48.54;100379.28;4997265;28;20213;-75
2022/03/26 00:15:04;;;;;;;36.95;22.40;;;;;;;8.51;48.49;100380.75;4997805;28;20739;-74
2022/03/26 00:17:30;;;;;;;29.77;18.95;;;;;;;8.55;48.23;100378.84;5002143;28;20206;-74
2022/03/26 00:19:55;;;;;;;32.43;20.57;;;;;;;8.56;48.11;100373.56;4998453;28;20203;-74
2022/03/26 00:22:21;;;;;;;34.67;21.10;;;;;;;8.56;48.20;100375.28;4997815;28;20227;-74
2022/03/26 00:24:46;;;;;;;36.93;23.27;;;;;;;8.54;48.26;100375.38;4996716;28;20223;-74
2022/03/26 00:27:11;;;;;;;37.57;20.50;;;;;;;8.53;48.36;100380.66;5000955;28;20640;-74
2022/03/26 00:29:37;;;;;;;32.30;20.00;;;;;;;8.50;48.45;100388.66;4999483;28;20206;-74
2022/03/26 00:32:04;;;;;;;34.60;19.40;;;;;;;8.47;48.59;100381.78;5005349;28;20706;-74
2022/03/26 00:34:30;;;;;;;27.33;19.80;;;;;;;8.46;48.79;100384.47;4997253;28;22583;-74
2022/03/26 00:36:56;;;;;;;43.22;22.40;;;;;;;8.44;48.62;100379.28;4997310;28;20294;-75
2022/03/26 00:39:22;;;;;;;30.25;19.40;;;;;;;8.44;48.60;100389.78;5001857;28;20624;-75
2022/03/26 00:41:47;;;;;;;33.23;19.00;;;;;;;8.44;48.79;100378.44;4993773;28;20627;-74
2022/03/26 00:44:13;;;;;;;36.43;22.37;;;;;;;8.42;48.65;100383.75;4998503;28;20226;-75
2022/03/26 00:46:39;;;;;;;35.60;21.90;;;;;;;8.36;48.94;100376.97;5002032;28;20346;-74
2022/03/26 00:49:04;;;;;;;32.72;20.65;;;;;;;8.31;49.17;100383.31;5010257;28;20243;-75
2022/03/26 00:51:30;;;;;;;31.90;19.17;;;;;;;8.28;49.05;100383.44;4998368;28;20205;-74
2022/03/26 00:53:55;;;;;;;27.13;19.50;;;;;;;8.26;49.35;100382.66;4997466;28;20222;-75
2022/03/26 00:56:21;;;;;;;33.03;21.23;;;;;;;8.25;49.35;100383.56;5000409;28;20416;-75
2022/03/26 00:58:46;;;;;;;32.03;19.53;;;;;;;8.20;49.45;100381.97;4997779;28;20822;-74
2022/03/26 01:01:11;;;;;;;32.80;19.30;;;;;;;8.14;49.78;100382.25;4996035;28;20320;-75
2022/03/26 01:03:37;;;;;;;35.70;21.20;;;;;;;8.09;49.61;100384.19;5006540;28;20250;-75
2022/03/26 01:06:04;;;;;;;29.80;20.33;;;;;;;8.06;49.80;100384.31;4998300;28;20229;-75
2022/03/26 01:08:30;;;;;;;35.72;21.48;;;;;;;8.05;49.77;100389.63;5007375;28;20318;-74
2022/03/26 01:10:55;;;;;;;38.97;22.67;;;;;;;8.02;49.90;100393.22;5002730;28;20716;-74
2022/03/26 01:13:21;;;;;;;33.60;21.10;;;;;;;7.98;50.11;100387.25;4995083;28;20509;-74
2022/03/26 01:15:47;;;;;;;37.95;21.33;;;;;;;7.96;50.13;100388.22;5000697;28;20218;-74
2022/03/26 01:18:12;;;;;;;37.40;21.00;;;;;;;7.95;50.48;100383.91;4996229;28;20207;-74
2022/03/26 01:20:37;;;;;;;35.67;24.20;;;;;;;7.94;50.70;100390.06;5003227;28;20202;-74
2022/03/26 01:23:03;;;;;;;38.63;21.00;;;;;;;7.93;50.66;100383.97;5004749;28;20210;-74
2022/03/26 01:25:29;;;;;;;39.00;22.37;;;;;;;7.91;50.77;100384.94;4995316;28;20576;-74
2022/03/26 01:27:54;;;;;;;33.03;20.90;;;;;;;7.89;50.81;100385.00;4999900;28;20203;-74
2022/03/26 01:30:19;;;;;;;33.30;22.20;;;;;;;7.88;50.94;100382.44;4996885;28;20211;-74
2022/03/26 01:32:45;;;;;;;36.17;21.57;;;;;;;7.85;51.21;100378.19;5002721;28;20206;-75
2022/03/26 01:35:12;;;;;;;47.57;21.67;;;;;;;7.83;51.18;100381.78;5003556;28;20229;-75
2022/03/26 01:37:37;;;;;;;38.33;23.33;;;;;;;7.79;51.30;100377.59;5008356;28;20254;-75
2022/03/26 01:40:04;;;;;;;37.83;22.53;;;;;;;7.75;51.29;100382.09;4999889;28;20341;-74
2022/03/26 01:42:30;;;;;;;35.08;21.88;;;;;;;7.72;51.31;100388.31;5000319;28;20223;-74
2022/03/26 01:44:55;;;;;;;32.00;21.10;;;;;;;7.69;51.35;100382.31;4999124;28;20230;-74
2022/03/26 01:47:21;;;;;;;36.13;21.73;;;;;;;7.67;51.75;100385.03;4999453;28;20245;-74
2022/03/26 01:49:46;;;;;;;37.30;21.10;;;;;;;7.62;51.66;100376.50;5000117;28;20249;-74
2022/03/26 01:52:12;;;;;;;34.53;21.90;;;;;;;7.59;52.07;100383.59;4997091;28;20676;-74
2022/03/26 01:54:39;;;;;;;38.90;21.00;;;;;;;7.54;51.93;100381.19;4997412;28;20230;-74
2022/03/26 01:57:05;;;;;;;38.08;21.02;;;;;;;7.50;51.98;100384.81;4998908;28;20202;-74
2022/03/26 01:59:32;;;;;;;36.30;22.25;;;;;;;7.48;52.42;100387.50;4997561;28;20309;-74
2022/03/26 02:01:57;;;;;;;41.47;24.90;;;;;;;7.46;52.49;100391.06;4993914;28;20735;-75
2022/03/26 02:04:23;;;;;;;35.80;22.87;;;;;;;7.42;52.92;100384.25;4995145;28;20221;-74
2022/03/26 02:06:48;;;;;;;34.00;21.20;;;;;;;7.37;53.18;100383.56;4991571;28;20763;-75
2022/03/26 02:09:15;;;;;;;33.17;19.93;;;;;;;7.32;52.87;100387.22;4996895;28;20260;-74
2022/03/26 02:11:43;;;;;;;35.05;21.90;;;;;;;7.27;53.24;100376.09;4996057;28;20201;-74
2022/03/26 02:14:10;;;;;;;39.35;23.35;;;;;;;7.22;53.30;100375.41;4990927;28;20234;-74
2022/03/26 02:16:38;;;;;;;33.03;20.48;;;;;;;7.18;53.18;100378.19;4998891;28;20206;-74
2022/03/26 02:19:06;;;;;;;37.00;22.05;;;;;;;7.16;53.25;100380.88;5001530;28;20301;-74
2022/03/26 02:21:34;;;;;;;34.90;22.27;;;;;;;7.12;53.38;100381.88;4994765;28;20209;-75
2022/03/26 02:24:02;;;;;;;33.35;20.83;;;;;;;7.07;53.47;100375.97;4994310;28;20817;-74
2022/03/26 02:26:28;;;;;;;34.90;22.98;;;;;;;7.05;54.04;100388.25;4992989;28;20206;-74
2022/03/26 02:28:55;;;;;;;37.95;22.42;;;;;;;7.01;54.14;100384.03;4995013;28;20229;-75
2022/03/26 02:31:20;;;;;;;35.03;21.52;;;;;;;6.97;54.16;100385.06;4998773;28;21094;-74
2022/03/26 02:33:46;;;;;;;37.03;22.10;;;;;;;6.96;54.09;100384.19;5000831;28;20218;-74
2022/03/26 02:36:12;;;;;;;32.77;20.40;;;;;;;6.96;54.27;100384.19;5003926;28;20464;-74
2022/03/26 02:38:38;;;;;;;34.10;19.52;;;;;;;6.95;54.32;100379.88;4996717;28;20691;-74
2022/03/26 02:41:05;;;;;;;34.50;21.60;;;;;;;6.93;54.23;100379.09;4995359;28;20678;-74
2022/03/26 02:43:30;;;;;;;31.23;20.55;;;;;;;6.93;54.52;100380.84;4994284;28;21078;-74
2022/03/26 02:45:56;;;;;;;36.90;22.93;;;;;;;6.92;54.22;100384.38;4995179;28;20216;-74
2022/03/26 02:48:21;;;;;;;34.97;22.90;;;;;;;6.92;53.93;100387.00;5002289;28;20245;-74
2022/03/26 02:50:47;;;;;;;32.47;21.07;;;;;;;6.89;54.47;100376.66;4996043;28;20211;-74
2022/03/26 02:53:13;;;;;;;37.30;20.73;;;;;;;6.86;54.36;100375.00;4998063;28;20508;-74
2022/03/26 02:55:39;;;;;;;41.67;22.80;;;;;;;6.83;54.60;100373.38;4995117;28;20206;-75
2022/03/26 02:58:07;;;;;;;32.35;20.73;;;;;;;6.83;54.86;100377.72;5000348;28;20458;-74
2022/03/26 03:00:32;;;;;;;40.42;21.58;;;;;;;6.81;54.43;100380.38;5000629;28;20684;-74
2022/03/26 03:02:58;;;;;;;38.67;26.30;;;;;;;6.84;55.27;100375.06;4994906;28;20559;-75
2022/03/26 03:05:24;;;;;;;41.20;23.60;;;;;;;6.81;55.42;100379.53;4995013;28;20466;-74
2022/03/26 03:07:50;;;;;;;38.73;23.40;;;;;;;6.79;55.25;100376.13;5001165;28;20542;-75
2022/03/26 03:10:17;;;;;;;39.20;21.45;;;;;;;6.75;55.27;100383.22;4997287;28;20227;-75
2022/03/26 03:12:44;;;;;;;36.08;23.63;;;;;;;6.72;55.53;100380.69;4999571;28;20203;-75
2022/03/26 03:15:15;;;;;;;37.92;22.65;;;;;;;6.69;55.34;100386.03;4996568;28;20234;-75
2022/03/26 03:17:41;;;;;;;37.65;21.65;;;;;;;6.65;55.29;100376.63;4995112;28;20215;-75
2022/03/26 03:20:08;;;;;;;37.17;22.20;;;;;;;6.62;55.52;100368.91;4994467;28;20252;-75
2022/03/26 03:22:34;;;;;;;39.92;21.73;;;;;;;6.56;56.03;100380.41;4994146;28;20226;-75
2022/03/26 03:25:00;;;;;;;33.92;20.77;;;;;;;6.51;55.98;100373.63;4996658;28;20535;-75
2022/03/26 03:27:25;;;;;;;38.60;23.00;;;;;;;6.47;56.19;100383.31;4998974;28;20531;-75
2022/03/26 03:29:52;;;;;;;38.50;23.20;;;;;;;6.45;56.20;100381.66;5002052;28;20672;-75
2022/03/26 03:32:18;;;;;;;40.30;21.98;;;;;;;6.41;56.29;100384.38;4994008;28;20261;-75
2022/03/26 03:34:44;;;;;;;41.23;24.60;;;;;;;6.36;56.21;100378.47;4999202;28;20635;-75
2022/03/26 03:37:09;;;;;;;31.17;21.37;;;;;;;6.33;56.57;100386.41;5005288;28;21032;-75
2022/03/26 03:39:35;;;;;;;37.70;22.20;;;;;;;6.32;56.38;100387.31;5004958;28;20298;-75
2022/03/26 03:42:00;;;;;;;39.87;24.57;;;;;;;6.31;56.41;100374.31;5005499;28;20231;-75
2022/03/26 03:44:26;;;;;;;38.33;20.77;;;;;;;6.30;56.49;100383.06;4999055;28;20774;-75
2022/03/26 03:46:52;;;;;;;36.83;20.23;;;;;;;6.28;56.48;100383.09;5000578;28;20289;-75
2022/03/26 03:49:18;;;;;;;35.07;20.37;;;;;;;6.27;56.24;100383.16;5002742;28;20242;-75
2022/03/26 03:51:43;;;;;;;35.50;25.58;;;;;;;6.26;56.85;100373.59;4998824;28;20548;-75
2022/03/26 03:54:09;;;;;;;33.47;20.50;;;;;;;6.23;56.76;100382.38;4994976;28;20646;-75
2022/03/26 03:56:35;;;;;;;30.37;19.17;;;;;;;6.21;56.83;100373.75;5000730;28;20210;-75
2022/03/26 03:59:01;;;;;;;36.95;20.70;;;;;;;6.20;57.03;100382.50;5000583;28;20834;-75
2022/03/26 04:01:26;;;;;;;32.57;20.50;;;;;;;6.19;56.77;100383.41;5006130;28;20280;-75
2022/03/26 04:03:52;;;;;;;40.27;23.07;;;;;;;6.16;56.65;100386.13;5001013;28;20226;-75
2022/03/26 04:06:17;;;;;;;35.80;20.00;;;;;;;6.12;56.98;100390.56;5002452;28;21452;-73
2022/03/26 04:08:43;;;;;;;32.47;22.53;;;;;;;6.09;56.92;100388.06;4996574;28;20699;-73
2022/03/26 04:11:08;;;;;;;27.27;19.57;;;;;;;6.08;57.07;100393.34;4997485;28;20203;-73
2022/03/26 04:13:34;;;;;;;32.57;20.00;;;;;;;6.03;57.33;100390.03;5000447;28;20226;-73
2022/03/26 04:16:00;;;;;;;35.20;18.40;;;;;;;5.97;57.43;100391.09;4997447;28;20683;-73
2022/03/26 04:18:26;;;;;;;34.00;20.10;;;;;;;5.93;57.11;100395.53;5002826;28;20715;-73
2022/03/26 04:20:53;;;;;;;37.60;19.47;;;;;;;5.90;57.63;100384.31;4997302;28;21034;-73
2022/03/26 04:23:19;;;;;;;34.20;20.00;;;;;;;5.87;57.44;100387.88;4998839;28;20296;-73
2022/03/26 04:25:45;;;;;;;30.73;21.60;;;;;;;5.84;57.60;100390.59;4996760;28;20203;-73
2022/03/26 04:28:10;;;;;;;33.97;20.83;;;;;;;5.84;57.63;100392.34;4997582;28;20552;-73
2022/03/26 04:30:35;;;;;;;28.40;20.70;;;;;;;5.81;57.68;100392.44;4998324;28;20218;-73
2022/03/26 04:33:01;;;;;;;35.45;24.75;;;;;;;5.82;57.88;100391.53;4996285;28;20497;-73
2022/03/26 04:35:26;;;;;;;35.40;21.83;;;;;;;5.80;58.11;100399.38;4997166;28;20294;-73
2022/03/26 04:37:55;;;;;;;40.03;21.10;;;;;;;5.78;58.07;100390.78;4998370;28;20286;-73
2022/03/26 04:40:21;;;;;;;40.30;22.83;;;;;;;5.77;58.22;100394.28;5001053;28;20584;-73
2022/03/26 04:42:46;;;;;;;34.50;21.53;;;;;;;5.74;58.05;100396.97;4995249;28;20397;-73
2022/03/26 04:45:12;;;;;;;32.73;21.73;;;;;;;5.71;58.02;100399.69;4995744;28;20222;-73
2022/03/26 04:47:38;;;;;;;27.13;18.70;;;;;;;5.68;58.51;100397.19;4999190;28;20234;-73
2022/03/26 04:50:05;;;;;;;31.30;21.53;;;;;;;5.64;58.25;100399.00;4995444;28;20199;-73
2022/03/26 04:52:31;;;;;;;33.05;21.70;;;;;;;5.60;58.31;100402.63;5002081;28;20572;-73
2022/03/26 04:54:56;;;;;;;32.33;20.93;;;;;;;5.57;58.49;100401.88;4997193;28;20236;-73
2022/03/26 04:57:21;;;;;;;33.80;20.00;;;;;;;5.53;58.42;100407.16;5000132;28;20214;-73
2022/03/26 04:59:47;;;;;;;39.63;20.57;;;;;;;5.50;58.70;100403.78;5003483;28;20209;-73
2022/03/26 05:02:13;;;;;;;38.37;23.47;;;;;;;5.49;59.00;100408.16;4996621;28;20952;-73
2022/03/26 05:04:39;;;;;;;33.67;21.88;;;;;;;5.49;59.10;100409.91;4995715;28;20699;-73
2022/03/26 05:07:45;;;;;;;41.67;24.17;;;;;;;5.47;58.72;100415.16;4998086;28;20238;-75
2022/03/26 05:09:50;;;;;;;41.85;21.27;;;;;;;5.47;58.89;100417.75;4998254;28;20513;-75
2022/03/26 05:12:17;;;;;;;33.90;20.53;;;;;;;5.46;58.97;100418.69;4993241;28;20286;-75
2022/03/26 05:14:42;;;;;;;35.25;20.00;;;;;;;5.47;58.75;100415.16;5003633;28;20334;-75
2022/03/26 05:17:08;;;;;;;35.80;19.53;;;;;;;5.48;58.46;100421.22;4998044;28;20672;-75
2022/03/26 05:19:33;;;;;;;29.33;20.40;;;;;;;5.49;58.95;100421.19;4998768;28;20207;-75
2022/03/26 05:21:58;;;;;;;32.83;18.93;;;;;;;5.48;58.80;100423.81;4999295;28;20759;-75
2022/03/26 05:24:24;;;;;;;37.30;20.10;;;;;;;5.48;58.84;100422.09;4994756;28;20702;-75
2022/03/26 05:26:50;;;;;;;31.33;18.90;;;;;;;5.49;58.67;100422.94;4998363;28;20269;-75
2022/03/26 05:29:15;;;;;;;27.73;18.80;;;;;;;5.49;58.88;100426.41;4998135;28;20973;-75
2022/03/26 05:31:41;;;;;;;35.23;20.97;;;;;;;5.48;58.68;100416.88;5002825;28;21062;-75
2022/03/26 05:34:06;;;;;;;30.53;19.00;;;;;;;5.51;58.79;100434.19;4995852;28;20226;-75
2022/03/26 05:36:31;;;;;;;33.63;20.17;;;;;;;5.51;58.84;100423.75;4998953;28;20277;-75
2022/03/26 05:38:57;;;;;;;34.73;19.00;;;;;;;5.53;58.40;100429.75;5002761;28;20811;-75
2022/03/26 05:41:23;;;;;;;33.10;20.60;;;;;;;5.53;58.56;100433.22;4995015;28;20211;-75
2022/03/26 05:43:49;;;;;;;35.92;21.90;;;;;;;5.54;58.70;100429.72;4996134;28;20231;-75
2022/03/26 05:46:15;;;;;;;29.20;20.77;;;;;;;5.55;58.27;100434.03;4999668;28;20272;-75
2022/03/26 05:48:41;;;;;;;31.03;20.70;;;;;;;5.58;58.44;100435.69;4996783;28;20500;-75
2022/03/26 05:51:07;;;;;;;32.63;18.40;;;;;;;5.61;58.50;100446.00;4996691;28;20488;-75
2022/03/26 05:53:32;;;;;;;28.53;16.90;;;;;;;5.59;58.73;100441.75;5002086;28;20850;-75
2022/03/26 05:55:58;;;;;;;25.37;17.03;;;;;;;5.59;58.73;100444.34;5000566;28;20253;-75
2022/03/26 05:58:24;;;;;;;38.97;19.27;;;;;;;5.59;58.54;100442.63;5003288;28;20559;-75
2022/03/26 06:00:49;;;;;;;36.90;23.77;;;;;;;5.66;58.79;100448.50;5000346;28;20505;-74
2022/03/26 06:03:19;;;;;;;40.40;24.58;;;;;;;5.74;58.84;100457.78;4995603;28;20493;-75
2022/03/26 06:05:47;;;;;;;31.52;18.58;;;;;;;5.76;58.86;100460.34;4999845;28;20203;-75
2022/03/26 06:08:13;;;;;;;35.03;20.95;;;;;;;5.76;58.64;100449.94;4993049;28;20213;-74
2022/03/26 06:10:38;;;;;;;31.93;19.40;;;;;;;5.79;58.39;100465.47;4997880;28;20201;-74
2022/03/26 06:13:04;;;;;;;29.77;19.50;;;;;;;5.81;58.22;100465.44;5000598;28;20361;-74
2022/03/26 06:15:29;;;;;;;33.93;18.90;;;;;;;5.80;58.60;100455.91;4996202;28;20251;-74
2022/03/26 06:17:55;;;;;;;32.33;20.07;;;;;;;5.83;58.70;100463.63;4996857;28;20206;-74
2022/03/26 06:20:20;;;;;;;36.43;22.03;;;;;;;5.86;58.19;100469.63;5000698;28;20255;-74
2022/03/26 06:22:46;;;;;;;28.37;16.63;;;;;;;5.88;58.55;100470.41;4996741;28;20215;-74
2022/03/26 06:25:11;;;;;;;32.87;18.43;;;;;;;5.91;58.53;100469.44;5000108;28;20664;-74
2022/03/26 06:27:37;;;;;;;33.43;19.40;;;;;;;5.91;58.76;100467.72;4995504;28;20265;-73
2022/03/26 06:30:03;;;;;;;26.10;17.57;;;;;;;5.93;58.74;100473.75;4994723;28;20616;-74
2022/03/26 06:32:28;;;;;;;27.53;17.33;;;;;;;5.97;58.69;100479.75;4994547;28;20853;-74
2022/03/26 06:34:53;;;;;;;33.60;20.73;;;;;;;5.98;58.64;100482.28;4995639;28;20470;-74
2022/03/26 06:37:22;;;;;;;35.33;18.60;;;;;;;6.05;58.45;100482.09;4996398;28;20212;-73
2022/03/26 06:39:47;;;;;;;33.35;21.98;;;;;;;6.12;58.59;100483.63;4996162;28;20662;-74
2022/03/26 06:42:13;;;;;;;33.67;18.97;;;;;;;6.17;58.23;100481.72;4997503;28;20221;-74
2022/03/26 06:44:38;;;;;;;33.33;19.30;;;;;;;6.24;57.49;100480.66;4998529;28;20226;-73
2022/03/26 06:47:04;;;;;;;30.00;19.07;;;;;;;6.33;57.28;100480.34;5003044;28;20209;-75
2022/03/26 06:49:31;;;;;;;29.33;18.10;;;;;;;6.43;57.31;100484.38;4996515;28;20202;-74
2022/03/26 06:51:57;;;;;;;35.72;17.90;;;;;;;6.53;56.71;100486.66;4992192;28;20202;-74
2022/03/26 06:54:23;;;;;;;33.05;20.98;;;;;;;6.62;57.10;100495.06;4994109;28;20233;-74
2022/03/26 06:56:48;;;;;;;30.43;18.83;;;;;;;6.75;56.77;100497.22;4995990;28;20203;-73
2022/03/26 06:59:17;;;;;;;29.85;19.10;;;;;;;6.84;56.03;100500.41;5001266;28;20202;-74
2022/03/26 07:01:44;;;;;;;32.10;20.10;;;;;;;6.96;56.06;100498.28;4990763;28;20559;-74
2022/03/26 07:04:14;;;;;;;31.27;19.92;;;;;;;7.07;55.59;100506.59;5000994;28;20720;-74
2022/03/26 07:06:39;;;;;;;34.57;20.63;;;;;;;7.14;55.56;100499.41;4996884;28;20315;-75
2022/03/26 07:09:04;;;;;;;32.07;19.23;;;;;;;7.23;55.37;100501.69;4996080;28;20226;-75
2022/03/26 07:11:30;;;;;;;27.00;18.20;;;;;;;7.33;55.08;100500.44;4998471;28;20209;-76
2022/03/26 07:13:55;;;;;;;40.17;20.40;;;;;;;7.44;54.72;100497.44;4997906;28;20629;-75
2022/03/26 07:16:20;;;;;;;34.20;20.60;;;;;;;7.56;54.67;100504.84;5000594;28;20202;-76
2022/03/26 07:18:46;;;;;;;28.13;18.60;;;;;;;7.64;54.55;100508.03;4996298;28;20214;-76
2022/03/26 07:21:11;;;;;;;29.70;19.17;;;;;;;7.71;54.14;100504.25;5003482;28;20198;-76
2022/03/26 07:23:37;;;;;;;33.27;21.47;;;;;;;7.81;53.91;100496.09;5001859;28;20235;-75
2022/03/26 07:26:02;;;;;;;27.37;19.63;;;;;;;7.86;53.89;100499.38;4998283;28;20213;-73
2022/03/26 07:28:28;;;;;;;31.57;19.27;;;;;;;7.94;53.79;100503.41;4998637;28;20203;-73
2022/03/26 07:30:53;;;;;;;29.77;18.43;;;;;;;8.04;53.34;100508.28;4997369;28;20721;-75
2022/03/26 07:33:19;;;;;;;31.27;20.40;;;;;;;8.11;53.00;100505.38;5002816;28;20249;-74
2022/03/26 07:35:45;;;;;;;36.67;19.97;;;;;;;8.18;53.05;100504.22;5001546;28;20229;-74
2022/03/26 07:38:11;;;;;;;33.95;19.60;;;;;;;8.28;52.82;100506.47;4999037;28;20211;-73
2022/03/26 07:40:36;;;;;;;32.55;20.30;;;;;;;8.35;52.65;100503.53;5001023;28;20199;-75
2022/03/26 07:43:02;;;;;;;29.63;17.63;;;;;;;8.41;52.35;100505.94;4998527;28;20692;-73
2022/03/26 07:45:28;;;;;;;29.40;18.93;;;;;;;8.44;52.43;100510.19;5000756;28;20668;-75
2022/03/26 07:47:53;;;;;;;33.23;18.40;;;;;;;8.51;52.10;100506.44;4997982;28;20757;-74
2022/03/26 07:50:19;;;;;;;33.10;20.53;;;;;;;8.59;51.88;100500.88;5003716;28;20955;-75
2022/03/26 07:52:44;;;;;;;31.37;22.17;;;;;;;8.80;51.63;100509.59;4998270;28;20202;-73
2022/03/26 07:55:10;;;;;;;36.50;19.57;;;;;;;9.34;50.42;100509.91;4999435;28;20231;-75
2022/03/26 07:57:36;;;;;;;24.97;17.47;;;;;;;10.05;48.78;100511.03;5000806;28;20222;-75
2022/03/26 08:00:02;;;;;;;28.45;19.27;;;;;;;10.79;47.26;100503.09;5000176;28;20477;-73
2022/03/26 08:02:38;;;;;;;28.73;19.63;;;;;;;11.51;45.71;100514.31;5002625;28;20580;-73
2022/03/26 08:05:04;;;;;;;30.67;21.63;;;;;;;12.22;44.40;100502.59;4999589;28;20230;-73
2022/03/26 08:07:31;;;;;;;34.67;19.17;;;;;;;12.92;42.83;100502.97;5002218;28;20226;-70
2022/03/26 08:09:56;;;;;;;28.95;19.15;;;;;;;13.51;41.48;100506.44;4999622;28;20982;-72
2022/03/26 08:12:22;;;;;;;24.73;18.47;;;;;;;13.89;40.14;100495.28;5000789;28;20285;-73
2022/03/26 08:14:48;;;;;;;29.03;18.30;;;;;;;14.33;39.18;100495.06;4998593;28;20608;-72
2022/03/26 08:17:14;;;;;;;30.08;20.15;;;;;;;14.51;38.45;100500.13;5003394;28;20317;-73
2022/03/26 08:19:39;;;;;;;28.10;20.10;;;;;;;14.81;37.96;100500.75;5002629;28;20211;-73
2022/03/26 08:22:05;;;;;;;29.50;20.53;;;;;;;15.02;37.08;100494.97;5006232;28;20640;-72
2022/03/26 08:24:30;;;;;;;28.07;20.50;;;;;;;15.03;36.70;100505.44;5000223;28;20226;-73
2022/03/26 08:26:56;;;;;;;30.53;20.80;;;;;;;15.16;36.27;100499.31;5000822;28;20783;-73
2022/03/26 08:29:21;;;;;;;31.83;19.97;;;;;;;15.23;36.24;100497.94;5002571;28;20210;-72
2022/03/26 08:31:46;;;;;;;33.23;19.93;;;;;;;15.51;35.87;100490.72;4997259;28;20234;-72
2022/03/26 08:34:12;;;;;;;32.43;23.30;;;;;;;15.92;35.03;100490.47;4999543;28;20250;-73
2022/03/26 08:36:38;;;;;;;28.73;19.83;;;;;;;16.24;34.90;100495.25;5001477;28;20202;-72
2022/03/26 08:39:04;;;;;;;30.50;19.73;;;;;;;16.44;34.05;100491.94;5000441;28;20273;-73
2022/03/26 08:41:29;;;;;;;30.37;21.17;;;;;;;16.38;34.05;100492.41;4997210;28;20773;-73
2022/03/26 08:43:55;;;;;;;28.67;19.57;;;;;;;16.71;33.82;100497.00;4997008;28;21004;-75
2022/03/26 08:46:21;;;;;;;31.67;20.20;;;;;;;16.91;33.53;100500.84;5000481;28;20209;-72
2022/03/26 08:48:50;;;;;;;29.40;19.30;;;;;;;17.01;33.43;100504.50;4997038;28;20286;-74
2022/03/26 08:51:16;;;;;;;30.05;19.80;;;;;;;17.10;33.41;100496.81;4997693;28;20470;-73
2022/03/26 08:53:42;;;;;;;27.65;19.63;;;;;;;16.98;33.45;100494.09;4996944;28;20512;-73
2022/03/26 08:56:08;;;;;;;30.80;21.83;;;;;;;16.93;33.56;100498.94;4994220;28;20769;-71
2022/03/26 08:58:34;;;;;;;29.90;21.20;;;;;;;16.95;33.36;100491.69;4997641;28;20203;-73
2022/03/26 09:01:01;;;;;;;28.25;19.45;;;;;;;17.11;33.09;100495.84;5000372;28;20289;-74
2022/03/26 09:03:26;;;;;;;29.88;19.70;;;;;;;17.35;32.73;100485.97;4994440;28;20736;-73
2022/03/26 09:05:53;;;;;;;29.50;19.50;;;;;;;17.21;32.92;100492.34;5000902;28;20227;-71
2022/03/26 09:08:19;;;;;;;29.48;20.75;;;;;;;17.01;33.03;100487.72;4998970;28;20206;-72
2022/03/26 09:10:45;;;;;;;31.47;20.73;;;;;;;16.78;33.45;100484.16;4995142;28;20595;-72
2022/03/26 09:13:11;;;;;;;31.50;19.73;;;;;;;16.73;33.55;100478.34;4995050;28;21130;-72
2022/03/26 09:15:37;;;;;;;30.60;21.10;;;;;;;16.73;33.67;100488.94;4998701;28;20257;-74
2022/03/26 09:18:03;;;;;;;30.50;20.63;;;;;;;16.66;33.98;100482.41;4996305;28;20219;-74
2022/03/26 09:20:29;;;;;;;29.70;20.00;;;;;;;16.50;34.25;100483.56;4998283;28;20812;-73
2022/03/26 09:22:55;;;;;;;30.07;19.97;;;;;;;16.34;34.47;100483.00;4997777;28;20226;-74
2022/03/26 09:25:20;;;;;;;29.90;20.40;;;;;;;16.20;34.84;100475.22;4999790;28;20210;-74
2022/03/26 09:27:47;;;;;;;30.43;19.33;;;;;;;16.13;35.12;100465.06;4996098;28;20257;-74
2022/03/26 09:30:14;;;;;;;30.85;21.50;;;;;;;16.15;35.45;100471.09;4993199;28;20273;-74
2022/03/26 09:32:40;;;;;;;33.50;22.35;;;;;;;16.23;35.37;100477.63;4995284;28;20490;-74
2022/03/26 09:35:06;;;;;;;30.13;21.37;;;;;;;16.08;35.78;100461.91;4995507;28;20489;-74
2022/03/26 09:37:32;;;;;;;33.13;21.37;;;;;;;16.06;35.94;100468.25;5002364;28;20544;-73
2022/03/26 09:39:57;;;;;;;30.73;21.30;;;;;;;16.00;35.97;100466.91;4997096;28;20823;-74
2022/03/26 09:42:24;;;;;;;35.10;21.30;;;;;;;16.03;35.69;100466.69;4998753;28;20243;-73
2022/03/26 09:44:50;;;;;;;35.33;21.00;;;;;;;16.13;35.83;100459.75;5001539;28;20222;-73
2022/03/26 09:47:16;;;;;;;29.00;19.98;;;;;;;16.25;35.67;100460.66;5004408;28;20256;-74
2022/03/26 09:49:42;;;;;;;29.45;20.17;;;;;;;16.34;36.01;100451.19;5001697;28;20211;-74
2022/03/26 09:52:08;;;;;;;30.07;19.13;;;;;;;16.38;35.68;100457.94;5000243;28;20209;-73
2022/03/26 09:54:36;;;;;;;34.37;22.57;;;;;;;16.33;35.51;100452.97;4996634;28;20510;-73
2022/03/26 09:57:02;;;;;;;32.08;22.05;;;;;;;16.36;35.81;100449.25;4997845;28;20215;-74
2022/03/26 09:59:28;;;;;;;30.02;21.13;;;;;;;16.37;35.78;100449.16;5003454;28;20240;-71
2022/03/26 10:01:53;;;;;;;34.13;21.63;;;;;;;16.57;35.51;100442.34;4999170;28;20498;-73
2022/03/26 10:04:21;;;;;;;33.63;20.33;;;;;;;16.63;35.26;100437.53;4999421;28;20450;-74
2022/03/26 10:06:55;;;;;;;30.15;20.67;;;;;;;16.66;35.15;100440.81;4999775;28;20213;-74
2022/03/26 10:09:37;;;;;;;35.70;20.57;;;;;;;16.69;35.06;100434.41;4995947;28;20426;-73
2022/03/26 10:12:05;;;;;;;32.53;19.92;;;;;;;16.74;35.09;100429.59;4998695;28;20504;-74
2022/03/26 10:14:54;;;;;;;31.53;21.37;;;;;;;16.77;35.00;100424.97;5001935;28;20243;-73
2022/03/26 10:17:29;;;;;;;25.93;19.87;;;;;;;16.67;34.94;100431.06;4997873;28;20478;-74
2022/03/26 10:19:56;;;;;;;37.73;21.40;;;;;;;16.57;35.10;100429.09;5001432;28;20478;-74
2022/03/26 10:22:22;;;;;;;28.83;20.20;;;;;;;16.62;35.34;100425.25;4994539;28;20936;-74
2022/03/26 10:24:48;;;;;;;31.97;20.47;;;;;;;16.75;35.40;100428.66;5002017;28;20493;-73
2022/03/26 10:27:14;;;;;;;28.17;20.20;;;;;;;16.88;35.34;100415.34;4996041;28;20496;-74
2022/03/26 10:29:49;;;;;;;30.50;20.13;;;;;;;16.99;34.77;100418.00;5003399;28;20471;-72
2022/03/26 10:35:12;;;;;;;34.87;22.93;;;;;;;17.10;34.48;100415.34;5000558;28;20815;-73
2022/03/26 10:37:44;;;;;;;35.57;22.80;;;;;;;17.09;34.09;100405.69;5001243;28;20802;-72
2022/03/26 10:40:24;;;;;;;31.50;20.33;;;;;;;17.13;33.92;100401.84;5000596;28;20525;-74
2022/03/26 10:42:54;;;;;;;33.03;19.63;;;;;;;17.22;33.88;100397.59;4995118;28;20488;-73
2022/03/26 10:45:20;;;;;;;35.43;21.27;;;;;;;17.35;34.05;100394.84;5004967;28;20460;-74
2022/03/26 10:47:48;;;;;;;29.10;21.17;;;;;;;17.55;34.01;100387.91;5003453;28;20811;-72
2022/03/26 10:50:14;;;;;;;27.47;18.40;;;;;;;17.65;34.11;100402.16;5002338;28;20195;-75
2022/03/26 10:52:40;;;;;;;30.83;22.77;;;;;;;17.69;33.91;100393.81;5005348;28;20459;-73
2022/03/26 10:55:17;;;;;;;31.67;19.93;;;;;;;17.63;33.81;100393.47;5005283;28;20480;-74
2022/03/26 10:57:47;;;;;;;33.88;23.05;;;;;;;17.76;34.00;100388.00;5002401;28;20585;-74
2022/03/26 11:00:14;;;;;;;25.47;20.17;;;;;;;17.81;33.66;100381.38;5008637;28;20202;-74
2022/03/26 11:02:41;;;;;;;36.50;21.60;;;;;;;17.92;33.89;100369.88;5006073;28;20497;-74
2022/03/26 11:05:08;;;;;;;30.17;20.67;;;;;;;17.99;33.75;100372.88;5011242;28;20543;-75
2022/03/26 11:07:36;;;;;;;29.90;18.13;;;;;;;17.98;33.94;100373.84;5002498;28;20509;-76
2022/03/26 11:10:05;;;;;;;31.87;20.73;;;;;;;17.98;34.10;100379.16;5001451;28;20469;-74
2022/03/26 11:12:33;;;;;;;30.47;19.83;;;;;;;18.00;34.10;100363.91;5000458;28;20473;-75